Time;durP1;ratioP1;P1;durP2;ratioP2;P2;SDS_P1;SDS_P2;PMS_P1;PMS_P2;Temp;Humidity;BMP_temperature;BMP_pressure;BME280_temperature;BME280_humidity;BME280_pressure;Samples;Min_cycle;Max_cycle;Signal;HPM_P1;HPM_P2
2023/12/23 00:00:13;;;;;;;13.10;2.73;;;;;;;5.30;100.00;100645.63;5052990;28;20180;-68
2023/12/23 00:02:38;;;;;;;20.40;3.00;;;;;;;5.24;100.00;100647.13;5044061;28;20187;-68
2023/12/23 00:05:04;;;;;;;20.03;3.30;;;;;;;5.30;100.00;100664.25;5049279;28;20434;-68
2023/12/23 00:07:30;;;;;;;23.97;3.10;;;;;;;5.19;100.00;100658.25;5044720;28;20732;-68
2023/12/23 00:09:55;;;;;;;23.13;3.43;;;;;;;5.06;100.00;100655.25;5045012;28;20437;-68
2023/12/23 00:12:21;;;;;;;18.70;3.30;;;;;;;4.84;100.00;100624.88;5045210;28;20184;-69
2023/12/23 00:14:46;;;;;;;17.03;3.00;;;;;;;5.31;100.00;100677.34;5049677;28;20194;-69
2023/12/23 00:17:11;;;;;;;16.03;3.10;;;;;;;5.35;100.00;100662.72;5044088;28;20238;-68
2023/12/23 00:19:37;;;;;;;12.67;2.53;;;;;;;5.26;100.00;100658.41;5042580;28;20183;-69
2023/12/23 00:22:02;;;;;;;22.73;4.20;;;;;;;5.29;100.00;100667.88;5045786;28;20188;-69
2023/12/23 00:24:29;;;;;;;12.97;3.07;;;;;;;5.26;100.00;100658.41;5046116;28;20192;-69
2023/12/23 00:26:57;;;;;;;17.77;3.27;;;;;;;5.27;100.00;100652.09;5049860;28;20204;-69
2023/12/23 00:29:24;;;;;;;19.20;3.57;;;;;;;5.33;100.00;100642.63;5043809;28;20564;-69
2023/12/23 00:31:49;;;;;;;16.27;3.13;;;;;;;5.26;100.00;100630.97;5046929;28;20438;-69
2023/12/23 00:34:15;;;;;;;16.03;3.27;;;;;;;5.35;100.00;100648.56;5048024;28;20438;-69
2023/12/23 00:36:40;;;;;;;19.90;3.10;;;;;;;5.35;100.00;100628.16;5046063;28;20269;-69
2023/12/23 00:39:06;;;;;;;15.87;3.10;;;;;;;5.38;100.00;100626.97;5043023;28;20194;-69
2023/12/23 00:41:32;;;;;;;14.10;2.63;;;;;;;5.28;100.00;100613.88;5050680;28;20187;-69
2023/12/23 00:43:57;;;;;;;25.20;3.03;;;;;;;5.47;100.00;100651.72;5047642;28;20184;-69
2023/12/23 00:46:22;;;;;;;17.67;3.53;;;;;;;5.47;100.00;100676.50;5045522;28;20195;-69
2023/12/23 00:48:48;;;;;;;15.27;3.17;;;;;;;5.14;100.00;100665.91;5046500;28;20220;-69
2023/12/23 00:51:13;;;;;;;14.60;2.10;;;;;;;4.85;100.00;100665.56;5051496;28;20187;-69
2023/12/23 00:53:39;;;;;;;11.70;2.60;;;;;;;4.70;100.00;100708.75;5045968;28;20603;-69
2023/12/23 00:56:05;;;;;;;15.00;2.60;;;;;;;4.30;100.00;100662.50;5046074;28;20681;-69
2023/12/23 00:58:30;;;;;;;15.40;2.00;;;;;;;4.80;100.00;100761.72;5036553;28;20183;-69
2023/12/23 01:00:56;;;;;;;15.73;3.60;;;;;;;4.65;100.00;100753.56;5049777;28;20434;-69
2023/12/23 01:03:21;;;;;;;13.33;2.30;;;;;;;4.77;100.00;100762.06;5038241;28;20226;-69
2023/12/23 01:05:47;;;;;;;15.43;3.67;;;;;;;4.87;100.00;100757.44;5049210;28;20185;-69
2023/12/23 01:08:12;;;;;;;16.00;3.47;;;;;;;4.41;100.00;100717.16;5059799;28;20212;-69
2023/12/23 01:10:38;;;;;;;23.03;2.80;;;;;;;4.73;100.00;100781.97;5046017;28;20198;-69
2023/12/23 01:13:03;;;;;;;16.00;2.97;;;;;;;4.10;100.00;100697.44;5042588;28;20795;-69
2023/12/23 01:15:29;;;;;;;14.17;2.43;;;;;;;4.65;100.00;100792.59;5039804;28;20728;-69
2023/12/23 01:17:54;;;;;;;11.20;2.43;;;;;;;4.23;100.00;100732.34;5044374;28;20681;-69
2023/12/23 01:20:19;;;;;;;20.23;2.93;;;;;;;4.29;100.00;100743.16;5045146;28;20199;-69
2023/12/23 01:22:45;;;;;;;10.63;3.60;;;;;;;4.83;100.00;100817.25;5042927;28;20198;-68
2023/12/23 01:25:11;;;;;;;12.70;2.23;;;;;;;4.60;100.00;100803.72;5045141;28;20270;-69
2023/12/23 01:27:36;;;;;;;12.63;2.53;;;;;;;4.64;100.00;100815.66;5039394;28;20249;-69
2023/12/23 01:30:02;;;;;;;14.37;2.63;;;;;;;4.84;100.00;100855.28;5043569;28;20222;-69
2023/12/23 01:32:28;;;;;;;11.60;2.10;;;;;;;4.73;100.00;100848.41;5044854;28;20595;-69
2023/12/23 01:34:53;;;;;;;13.10;2.77;;;;;;;4.26;100.00;100796.59;5055581;28;20198;-69
2023/12/23 01:37:18;;;;;;;19.40;3.43;;;;;;;4.11;100.00;100763.66;5039964;28;20198;-69
2023/12/23 01:39:44;;;;;;;24.33;3.27;;;;;;;4.68;100.00;100850.72;5038051;28;21805;-69
2023/12/23 01:42:09;;;;;;;9.33;1.90;;;;;;;4.85;100.00;100878.19;5040940;28;20183;-69
2023/12/23 01:44:35;;;;;;;18.97;2.57;;;;;;;4.48;100.00;100845.66;5056521;28;20665;-69
2023/12/23 01:47:02;;;;;;;18.57;2.80;;;;;;;4.76;100.00;100866.69;5042620;28;20214;-69
2023/12/23 01:49:29;;;;;;;11.37;2.23;;;;;;;4.71;100.00;100883.09;5041138;28;20179;-69
2023/12/23 01:51:57;;;;;;;18.43;3.20;;;;;;;4.75;100.00;100888.97;5045767;28;20815;-69
2023/12/23 01:54:23;;;;;;;20.27;2.97;;;;;;;4.76;100.00;100882.63;5046239;28;20466;-69
2023/12/23 01:56:50;;;;;;;20.40;2.80;;;;;;;4.82;100.00;100889.13;5046130;28;20549;-69
2023/12/23 01:59:17;;;;;;;17.50;2.57;;;;;;;4.63;100.00;100879.56;5050494;28;20434;-69
2023/12/23 02:01:43;;;;;;;14.53;2.40;;;;;;;4.78;100.00;100904.56;5037837;28;20431;-69
2023/12/23 02:04:09;;;;;;;17.13;2.77;;;;;;;4.33;100.00;100836.59;5061756;28;20434;-69
2023/12/23 02:06:34;;;;;;;13.83;2.87;;;;;;;4.61;100.00;100898.34;5042174;28;20450;-69
2023/12/23 02:09:01;;;;;;;17.13;2.30;;;;;;;4.45;100.00;100877.00;5047305;28;20688;-69
2023/12/23 02:11:53;;;;;;;13.07;1.90;;;;;;;4.53;100.00;100883.19;5041357;28;20233;-69
2023/12/23 02:14:40;;;;;;;13.00;2.57;;;;;;;4.82;100.00;100935.16;5060137;28;20430;-69
2023/12/23 02:17:06;;;;;;;15.83;3.03;;;;;;;4.56;100.00;100883.88;5044221;28;21079;-69
2023/12/23 02:19:32;;;;;;;13.00;2.00;;;;;;;4.86;100.00;100925.03;5049886;28;20449;-69
2023/12/23 02:21:57;;;;;;;11.20;2.40;;;;;;;4.79;100.00;100905.41;5048989;28;20916;-69
2023/12/23 02:24:23;;;;;;;13.07;1.80;;;;;;;4.96;100.00;100925.75;5048834;28;20176;-69
2023/12/23 02:26:53;;;;;;;14.83;2.33;;;;;;;4.94;100.00;100915.25;5046101;28;20223;-69
2023/12/23 02:29:21;;;;;;;12.07;2.27;;;;;;;4.88;100.00;100909.75;5056163;28;20195;-69
2023/12/23 02:31:48;;;;;;;13.50;2.20;;;;;;;4.90;100.00;100927.22;5047884;28;20494;-69
2023/12/23 02:34:14;;;;;;;12.60;2.07;;;;;;;4.22;100.00;100812.97;5046709;28;20966;-69
2023/12/23 02:36:39;;;;;;;21.37;3.10;;;;;;;4.85;100.00;100945.47;5053644;28;20457;-68
2023/12/23 02:39:05;;;;;;;19.73;2.57;;;;;;;4.88;100.00;100937.16;5048669;28;20431;-68
2023/12/23 02:41:30;;;;;;;15.67;3.10;;;;;;;4.85;100.00;100934.00;5046957;28;20653;-68
2023/12/23 02:43:56;;;;;;;16.93;2.80;;;;;;;4.70;100.00;100926.63;5050945;28;20180;-68
2023/12/23 02:46:21;;;;;;;14.97;3.17;;;;;;;4.18;100.00;100832.88;5052308;28;20200;-69
2023/12/23 02:48:47;;;;;;;15.47;3.43;;;;;;;4.69;100.00;100909.03;5045322;28;20219;-68
2023/12/23 02:51:12;;;;;;;25.50;3.30;;;;;;;4.86;100.00;100933.00;5043732;28;20192;-69
2023/12/23 02:53:38;;;;;;;17.40;2.53;;;;;;;4.59;100.00;100894.19;5046197;28;20309;-69
2023/12/23 02:56:04;;;;;;;19.23;2.37;;;;;;;4.86;100.00;100954.25;5051832;28;20294;-68
2023/12/23 02:58:29;;;;;;;23.60;3.70;;;;;;;4.83;100.00;100976.69;5047458;28;21393;-69
2023/12/23 03:00:54;;;;;;;18.07;3.20;;;;;;;4.84;100.00;100974.88;5047760;28;20354;-69
2023/12/23 03:03:20;;;;;;;15.30;2.60;;;;;;;4.22;100.00;100876.69;5044443;28;20665;-69
2023/12/23 03:05:45;;;;;;;16.87;2.10;;;;;;;4.77;100.00;100961.34;5053973;28;20199;-69
2023/12/23 03:08:11;;;;;;;11.07;2.03;;;;;;;4.73;100.00;100970.66;5046462;28;20226;-69
2023/12/23 03:10:36;;;;;;;14.10;2.40;;;;;;;4.40;100.00;100897.91;5045156;28;20278;-69
2023/12/23 03:13:02;;;;;;;14.60;2.00;;;;;;;4.62;100.00;100942.50;5048483;28;20180;-69
2023/12/23 03:15:28;;;;;;;15.30;3.07;;;;;;;4.76;100.00;100954.38;5050617;28;20194;-69
2023/12/23 03:17:54;;;;;;;11.07;2.70;;;;;;;4.60;100.00;100931.22;5050164;28;20462;-68
2023/12/23 03:20:19;;;;;;;16.13;2.60;;;;;;;4.08;100.00;100862.19;5050604;28;20432;-69
2023/12/23 03:22:45;;;;;;;12.87;2.70;;;;;;;4.71;100.00;100943.38;5051071;28;21422;-69
2023/12/23 03:25:10;;;;;;;12.27;2.47;;;;;;;4.82;100.00;100952.94;5048375;28;20663;-69
2023/12/23 03:27:36;;;;;;;16.23;3.30;;;;;;;4.39;100.00;100898.88;5043763;28;20215;-69
2023/12/23 03:30:02;;;;;;;11.27;2.40;;;;;;;4.22;100.00;100844.84;5061981;28;20179;-69
2023/12/23 03:32:27;;;;;;;12.90;2.70;;;;;;;4.30;100.00;100836.94;5041999;28;20192;-69
2023/12/23 03:34:53;;;;;;;16.77;3.17;;;;;;;4.75;100.00;100912.88;5042614;28;20430;-69
2023/12/23 03:37:18;;;;;;;13.90;3.20;;;;;;;4.64;100.00;100887.41;5042757;28;20680;-69
2023/12/23 03:39:43;;;;;;;15.63;3.90;;;;;;;4.88;100.00;100942.47;5048880;28;20237;-69
2023/12/23 03:42:09;;;;;;;16.10;2.30;;;;;;;4.93;100.00;100928.72;5043205;28;20269;-69
2023/12/23 03:44:34;;;;;;;12.80;2.40;;;;;;;4.51;100.00;100847.16;5049067;28;20200;-69
2023/12/23 03:47:00;;;;;;;20.40;2.43;;;;;;;4.98;100.00;100931.75;5049581;28;20572;-69
2023/12/23 03:49:25;;;;;;;14.93;2.50;;;;;;;4.65;100.00;100859.84;5046653;28;20176;-69
2023/12/23 03:51:50;;;;;;;11.40;1.70;;;;;;;4.44;100.00;100831.03;5050823;28;20192;-69
2023/12/23 03:54:16;;;;;;;18.03;2.90;;;;;;;5.10;100.00;100937.59;5048177;28;20186;-69
2023/12/23 03:56:41;;;;;;;12.43;2.07;;;;;;;5.11;100.00;100937.44;5047523;28;20219;-69
2023/12/23 03:59:07;;;;;;;11.50;1.80;;;;;;;4.93;100.00;100923.41;5047409;28;20195;-69
2023/12/23 04:01:32;;;;;;;13.00;2.77;;;;;;;4.95;100.00;100924.09;5047974;28;20199;-69
2023/12/23 04:03:57;;;;;;;12.50;2.30;;;;;;;4.96;100.00;100917.78;5049360;28;20182;-69
2023/12/23 04:06:23;;;;;;;13.33;2.00;;;;;;;4.74;100.00;100880.16;5046462;28;20206;-69
2023/12/23 04:08:48;;;;;;;16.63;2.00;;;;;;;4.82;100.00;100895.28;5039570;28;20698;-69
2023/12/23 04:11:14;;;;;;;8.23;1.63;;;;;;;5.07;100.00;100904.19;5044475;28;20184;-69
2023/12/23 04:13:39;;;;;;;7.70;1.40;;;;;;;4.98;100.00;100883.91;5049058;28;20178;-69
2023/12/23 04:16:05;;;;;;;14.57;2.20;;;;;;;5.06;100.00;100875.91;5045392;28;20211;-69
2023/12/23 04:18:30;;;;;;;8.60;1.40;;;;;;;5.04;100.00;100883.25;5047498;28;20183;-69
2023/12/23 04:20:56;;;;;;;11.67;1.53;;;;;;;4.66;100.00;100824.31;5046058;28;20375;-69
2023/12/23 04:23:21;;;;;;;6.87;1.20;;;;;;;4.89;100.00;100852.94;5046456;28;20187;-69
2023/12/23 04:25:47;;;;;;;10.73;1.57;;;;;;;4.98;100.00;100882.06;5046207;28;20176;-69
2023/12/23 04:28:12;;;;;;;12.20;1.30;;;;;;;4.94;100.00;100886.03;5048917;28;20400;-70
2023/12/23 04:30:38;;;;;;;8.73;2.23;;;;;;;4.91;100.00;100890.84;5054852;28;20654;-69
2023/12/23 04:33:04;;;;;;;11.87;2.03;;;;;;;4.94;100.00;100870.06;5063605;28;20175;-69
2023/12/23 04:35:29;;;;;;;11.10;1.60;;;;;;;4.91;100.00;100866.91;5045540;28;20218;-69
2023/12/23 04:37:55;;;;;;;8.87;1.50;;;;;;;4.96;100.00;100885.88;5043745;28;20216;-69
2023/12/23 04:40:20;;;;;;;9.83;1.63;;;;;;;4.38;100.00;100809.59;5042109;28;20610;-69
2023/12/23 04:42:46;;;;;;;10.87;1.53;;;;;;;4.58;100.00;100845.53;5055800;28;20188;-69
2023/12/23 04:45:11;;;;;;;15.33;2.23;;;;;;;4.69;100.00;100858.53;5062393;28;20178;-69
2023/12/23 04:47:37;;;;;;;9.40;2.00;;;;;;;4.70;100.00;100881.44;5048284;28;20711;-69
2023/12/23 04:50:03;;;;;;;11.40;2.10;;;;;;;4.26;100.00;100820.50;5043686;28;20630;-69
2023/12/23 04:52:29;;;;;;;10.13;2.00;;;;;;;4.70;100.00;100888.59;5047431;28;20438;-69
2023/12/23 04:54:55;;;;;;;15.07;1.93;;;;;;;4.62;100.00;100875.25;5047632;28;20266;-69
2023/12/23 04:57:20;;;;;;;14.17;2.30;;;;;;;4.60;100.00;100877.25;5061676;28;20572;-69
2023/12/23 04:59:46;;;;;;;11.27;1.70;;;;;;;4.70;100.00;100918.66;5050427;28;20188;-69
2023/12/23 05:02:11;;;;;;;13.00;2.03;;;;;;;4.71;100.00;100938.06;5043489;28;20189;-69
2023/12/23 05:04:37;;;;;;;15.97;1.80;;;;;;;4.52;100.00;100917.91;5045709;28;20649;-69
2023/12/23 05:07:02;;;;;;;9.80;2.00;;;;;;;4.78;100.00;100952.41;5039023;28;20211;-69
2023/12/23 05:09:27;;;;;;;12.03;1.93;;;;;;;4.45;100.00;100941.56;5046213;28;21942;-69
2023/12/23 05:11:53;;;;;;;12.07;2.00;;;;;;;4.55;100.00;100962.75;5044778;28;20257;-69
2023/12/23 05:14:18;;;;;;;7.73;1.30;;;;;;;4.35;100.00;100967.41;5039811;28;20253;-69
2023/12/23 05:16:44;;;;;;;8.17;1.47;;;;;;;4.51;100.00;100972.00;5043836;28;20637;-69
2023/12/23 05:19:09;;;;;;;8.47;1.70;;;;;;;4.62;100.00;101014.25;5048228;28;20707;-69
2023/12/23 05:21:35;;;;;;;6.37;1.50;;;;;;;4.17;100.00;100958.66;5052031;28;20643;-69
2023/12/23 05:24:00;;;;;;;12.40;1.97;;;;;;;4.59;100.00;101019.03;5044739;28;20194;-69
2023/12/23 05:26:25;;;;;;;9.60;2.07;;;;;;;4.41;100.00;101009.28;5044650;28;20789;-69
2023/12/23 05:28:51;;;;;;;7.73;1.13;;;;;;;4.60;100.00;101052.59;5046833;28;20500;-69
2023/12/23 05:31:17;;;;;;;6.70;1.83;;;;;;;4.61;100.00;101065.72;5035846;28;20248;-69
2023/12/23 05:33:42;;;;;;;18.87;1.57;;;;;;;4.72;100.00;101092.06;5048680;28;20450;-69
2023/12/23 05:36:08;;;;;;;6.53;1.10;;;;;;;4.18;100.00;101032.84;5044235;28;20203;-69
2023/12/23 05:38:33;;;;;;;12.40;1.43;;;;;;;4.19;100.00;101012.41;5049773;28;20258;-70
2023/12/23 05:41:00;;;;;;;9.37;1.37;;;;;;;4.61;100.00;101102.09;5057947;28;20699;-69
2023/12/23 05:43:26;;;;;;;5.93;1.10;;;;;;;4.65;100.00;101122.03;5054032;28;20201;-69
2023/12/23 05:45:51;;;;;;;7.27;1.40;;;;;;;4.74;100.00;101132.59;5042560;28;20433;-69
2023/12/23 05:48:17;;;;;;;8.40;1.30;;;;;;;4.51;100.00;101118.09;5040420;28;20268;-69
2023/12/23 05:50:42;;;;;;;9.43;1.10;;;;;;;4.77;100.00;101155.34;5052204;28;20563;-69
2023/12/23 05:53:08;;;;;;;7.70;1.30;;;;;;;4.72;100.00;101149.69;5048061;28;20172;-70
2023/12/23 05:55:33;;;;;;;6.00;1.17;;;;;;;4.51;100.00;101116.31;5044308;28;20195;-69
2023/12/23 05:57:58;;;;;;;8.97;1.50;;;;;;;4.70;100.00;101138.38;5041516;28;20187;-69
2023/12/23 06:00:24;;;;;;;5.63;0.90;;;;;;;4.78;100.00;101138.44;5042000;28;20654;-69
2023/12/23 06:02:49;;;;;;;6.40;1.07;;;;;;;4.67;100.00;101139.50;5052167;28;20187;-69
2023/12/23 06:05:15;;;;;;;7.20;1.57;;;;;;;4.77;100.00;101160.66;5047052;28;20188;-69
2023/12/23 06:07:40;;;;;;;5.33;1.00;;;;;;;4.71;100.00;101171.91;5044962;28;20216;-69
2023/12/23 06:10:06;;;;;;;4.60;0.90;;;;;;;4.55;100.00;101122.13;5049983;28;20175;-69
2023/12/23 06:12:32;;;;;;;6.13;1.30;;;;;;;5.02;100.00;101179.50;5044381;28;20187;-69
2023/12/23 06:14:57;;;;;;;7.63;1.20;;;;;;;4.72;100.00;101177.09;5052255;28;20437;-69
2023/12/23 06:17:23;;;;;;;4.27;0.77;;;;;;;4.72;100.00;101182.41;5048738;28;20215;-69
2023/12/23 06:19:49;;;;;;;6.07;0.90;;;;;;;4.63;100.00;101180.66;5051292;28;20176;-69
2023/12/23 06:22:14;;;;;;;6.10;0.93;;;;;;;4.64;100.00;101187.63;5051578;28;20464;-69
2023/12/23 06:24:40;;;;;;;4.77;0.80;;;;;;;4.44;100.00;101155.06;5047619;28;20196;-69
2023/12/23 06:27:05;;;;;;;5.33;1.07;;;;;;;4.19;100.00;101122.09;5048732;28;20211;-69
2023/12/23 06:29:31;;;;;;;3.80;0.83;;;;;;;4.39;100.00;101121.97;5050754;28;20533;-69
2023/12/23 06:32:00;;;;;;;11.30;1.27;;;;;;;4.71;100.00;101190.50;5044344;28;20564;-69
2023/12/23 06:34:25;;;;;;;5.37;0.90;;;;;;;4.65;100.00;101172.53;5047240;28;20187;-70
2023/12/23 06:36:51;;;;;;;5.87;1.17;;;;;;;4.61;100.00;101152.56;5048102;28;20456;-70
2023/12/23 06:39:16;;;;;;;6.73;0.90;;;;;;;4.74;100.00;101195.53;5051086;28;20180;-69
2023/12/23 06:41:42;;;;;;;5.93;1.00;;;;;;;4.89;100.00;101171.91;5046069;28;20179;-70
2023/12/23 06:44:07;;;;;;;9.50;0.90;;;;;;;4.61;100.00;101168.50;5045116;28;20185;-69
2023/12/23 06:46:33;;;;;;;4.93;1.00;;;;;;;4.40;100.00;101121.84;5043888;28;20207;-69
2023/12/23 06:48:58;;;;;;;4.43;0.90;;;;;;;4.66;100.00;101143.16;5040862;28;20241;-69
2023/12/23 06:51:24;;;;;;;4.90;0.70;;;;;;;4.89;100.00;101195.81;5037267;28;20208;-69
2023/12/23 06:53:49;;;;;;;3.40;0.60;;;;;;;4.74;100.00;101183.09;5047757;28;20196;-69
2023/12/23 06:56:14;;;;;;;6.17;0.80;;;;;;;4.79;100.00;101203.06;5045444;28;21059;-69
2023/12/23 06:58:40;;;;;;;4.40;0.67;;;;;;;4.32;100.00;101158.94;5045703;28;20240;-69
2023/12/23 07:01:05;;;;;;;4.77;0.90;;;;;;;4.43;100.00;101165.84;5047978;28;20184;-69
2023/12/23 07:03:31;;;;;;;6.50;1.13;;;;;;;4.83;100.00;101225.66;5040518;28;20697;-69
2023/12/23 07:05:57;;;;;;;5.53;0.77;;;;;;;4.74;100.00;101238.91;5046545;28;20203;-69
2023/12/23 07:08:22;;;;;;;3.67;0.60;;;;;;;4.78;100.00;101230.63;5044031;28;20694;-69
2023/12/23 07:10:48;;;;;;;3.97;0.70;;;;;;;4.62;100.00;101196.75;5049026;28;20179;-70
2023/12/23 07:13:14;;;;;;;5.23;0.90;;;;;;;4.76;100.00;101199.69;5046237;28;20232;-69
2023/12/23 07:15:39;;;;;;;5.20;1.10;;;;;;;4.69;100.00;101200.47;5044475;28;20225;-70
2023/12/23 07:18:05;;;;;;;8.20;2.27;;;;;;;4.77;100.00;101208.50;5042046;28;20654;-70
2023/12/23 07:20:31;;;;;;;4.83;1.30;;;;;;;4.40;100.00;101163.50;5042803;28;20658;-69
2023/12/23 07:22:56;;;;;;;4.60;1.17;;;;;;;4.34;100.00;101145.50;5039691;28;20492;-69
2023/12/23 07:25:22;;;;;;;4.30;1.20;;;;;;;4.67;100.00;101187.34;5050200;28;20188;-69
2023/12/23 07:27:47;;;;;;;4.90;1.00;;;;;;;4.65;100.00;101210.56;5051771;28;20247;-69
2023/12/23 07:30:14;;;;;;;5.37;1.03;;;;;;;4.61;100.00;101216.34;5048926;28;20210;-69
2023/12/23 07:32:40;;;;;;;3.90;0.90;;;;;;;4.48;100.00;101212.25;5042012;28;20183;-70
2023/12/23 07:35:06;;;;;;;5.50;0.80;;;;;;;4.76;100.00;101218.31;5052359;28;20441;-70
2023/12/23 07:37:31;;;;;;;3.90;0.70;;;;;;;4.65;100.00;101231.81;5042213;28;20454;-69
2023/12/23 07:39:57;;;;;;;3.73;0.77;;;;;;;4.53;100.00;101195.81;5043610;28;20206;-70
2023/12/23 07:42:22;;;;;;;5.53;0.90;;;;;;;4.34;100.00;101162.28;5043167;28;20191;-69
2023/12/23 07:44:48;;;;;;;3.93;0.80;;;;;;;4.62;100.00;101213.50;5046863;28;20188;-70
2023/12/23 07:47:13;;;;;;;5.80;1.90;;;;;;;4.60;100.00;101215.50;5043076;28;20680;-69
2023/12/23 07:49:39;;;;;;;4.73;1.33;;;;;;;4.48;100.00;101208.72;5038655;28;20679;-69
2023/12/23 07:52:05;;;;;;;5.27;1.80;;;;;;;4.61;100.00;101248.22;5042480;28;20183;-70
2023/12/23 07:54:31;;;;;;;4.37;1.10;;;;;;;4.42;100.00;101243.84;5047537;28;20199;-69
2023/12/23 07:56:56;;;;;;;4.87;1.53;;;;;;;4.62;100.00;101233.94;5042613;28;20968;-69
2023/12/23 07:59:22;;;;;;;8.60;1.60;;;;;;;4.53;100.00;101222.41;5048079;28;20180;-69
2023/12/23 08:01:47;;;;;;;7.53;2.13;;;;;;;4.38;100.00;101206.13;5047296;28;20639;-70
2023/12/23 08:04:13;;;;;;;6.90;1.97;;;;;;;4.56;100.00;101235.38;5040988;28;20663;-69
2023/12/23 08:06:39;;;;;;;4.97;1.30;;;;;;;4.41;100.00;101232.41;5060151;28;20203;-69
2023/12/23 08:09:05;;;;;;;4.13;1.07;;;;;;;4.59;100.00;101256.31;5053373;28;20835;-69
2023/12/23 08:11:31;;;;;;;5.80;1.37;;;;;;;4.24;100.00;101219.91;5044010;28;20326;-69
2023/12/23 08:13:56;;;;;;;3.93;1.20;;;;;;;4.53;100.00;101272.88;5045321;28;20522;-70
2023/12/23 08:16:22;;;;;;;4.97;1.40;;;;;;;4.60;100.00;101279.28;5049915;28;20208;-70
2023/12/23 08:18:48;;;;;;;3.90;0.93;;;;;;;4.41;100.00;101266.09;5046158;28;20463;-70
2023/12/23 08:21:14;;;;;;;4.07;0.98;;;;;;;4.42;100.00;101294.31;5047552;28;20428;-69
2023/12/23 08:23:40;;;;;;;4.33;1.13;;;;;;;4.47;100.00;101292.06;5045217;28;20657;-69
2023/12/23 08:26:06;;;;;;;3.40;0.80;;;;;;;4.20;100.00;101261.03;5045555;28;20454;-69
2023/12/23 08:28:31;;;;;;;5.50;1.00;;;;;;;4.33;100.00;101293.38;5044999;28;20466;-69
2023/12/23 08:30:56;;;;;;;3.30;0.70;;;;;;;4.06;100.00;101244.59;5043871;28;21009;-69
2023/12/23 08:33:22;;;;;;;4.20;0.80;;;;;;;4.38;100.00;101292.94;5048610;28;20195;-69
2023/12/23 08:35:49;;;;;;;3.90;0.90;;;;;;;4.51;100.00;101304.06;5045555;28;20247;-69
2023/12/23 08:38:14;;;;;;;4.63;1.00;;;;;;;4.35;100.00;101285.28;5044470;28;20552;-70
2023/12/23 08:40:40;;;;;;;5.10;1.00;;;;;;;4.41;100.00;101317.38;5040491;28;20435;-70
2023/12/23 08:43:05;;;;;;;5.57;0.90;;;;;;;4.44;100.00;101351.63;5052208;28;20266;-70
2023/12/23 08:45:30;;;;;;;5.30;0.97;;;;;;;4.49;100.00;101345.88;5050430;28;20342;-69
2023/12/23 08:47:56;;;;;;;6.10;1.10;;;;;;;4.67;100.00;101337.97;5042785;28;20197;-70
2023/12/23 08:50:22;;;;;;;3.50;0.90;;;;;;;4.44;100.00;101321.56;5046522;28;20259;-69
2023/12/23 08:52:48;;;;;;;3.70;1.00;;;;;;;4.60;100.00;101343.03;5047498;28;20203;-70
2023/12/23 08:55:14;;;;;;;4.80;1.30;;;;;;;4.62;100.00;101353.50;5043605;28;20932;-70
2023/12/23 08:57:40;;;;;;;4.90;0.87;;;;;;;4.24;100.00;101310.19;5041766;28;20460;-70
2023/12/23 09:00:06;;;;;;;4.93;0.80;;;;;;;4.57;100.00;101379.66;5035627;28;20535;-70
2023/12/23 09:02:31;;;;;;;3.60;1.00;;;;;;;4.58;100.00;101384.03;5047095;28;20574;-70
2023/12/23 09:04:57;;;;;;;6.27;1.40;;;;;;;4.63;100.00;101387.91;5045924;28;20433;-70
2023/12/23 09:07:22;;;;;;;3.80;0.80;;;;;;;4.65;100.00;101390.41;5045960;28;20207;-70
2023/12/23 09:09:48;;;;;;;6.97;0.90;;;;;;;3.46;100.00;101222.03;5043190;28;20180;-70
2023/12/23 09:12:13;;;;;;;5.23;1.17;;;;;;;4.51;100.00;101397.03;5038302;28;20924;-70
2023/12/23 09:14:39;;;;;;;6.63;1.43;;;;;;;4.41;100.00;101381.13;5059902;28;20182;-70
2023/12/23 09:17:06;;;;;;;4.63;1.10;;;;;;;4.60;100.00;101405.94;5039816;28;20222;-70
2023/12/23 09:19:31;;;;;;;3.40;0.77;;;;;;;4.33;100.00;101356.28;5039594;28;20183;-69
2023/12/23 09:21:57;;;;;;;3.47;0.80;;;;;;;4.65;100.00;101409.84;5044521;28;20775;-69
2023/12/23 09:24:22;;;;;;;4.03;0.80;;;;;;;4.63;100.00;101393.22;5052490;28;20180;-70
2023/12/23 09:26:47;;;;;;;3.43;0.70;;;;;;;4.59;100.00;101386.50;5045918;28;20208;-70
2023/12/23 09:29:13;;;;;;;3.40;0.80;;;;;;;4.66;100.00;101416.03;5044653;28;20204;-70
2023/12/23 09:31:38;;;;;;;3.40;0.70;;;;;;;4.41;100.00;101382.97;5041130;28;20180;-70
2023/12/23 09:34:04;;;;;;;4.03;0.73;;;;;;;4.53;100.00;101406.53;5050510;28;20176;-70
2023/12/23 09:36:29;;;;;;;3.80;0.90;;;;;;;4.48;100.00;101408.81;5043922;28;20672;-70
2023/12/23 09:38:55;;;;;;;4.07;0.90;;;;;;;4.36;100.00;101396.66;5048342;28;20185;-69
2023/12/23 09:41:21;;;;;;;4.90;1.00;;;;;;;4.35;100.00;101405.63;5047621;28;20174;-70
2023/12/23 09:43:50;;;;;;;5.40;1.30;;;;;;;4.73;100.00;101451.66;5061387;28;20177;-70
2023/12/23 09:46:18;;;;;;;4.57;1.10;;;;;;;4.85;100.00;101442.50;5041470;28;20819;-70
2023/12/23 09:48:43;;;;;;;4.90;1.00;;;;;;;4.67;100.00;101429.16;5046340;28;20505;-70
2023/12/23 09:51:10;;;;;;;5.83;0.80;;;;;;;4.22;100.00;101383.84;5044325;28;20449;-70
2023/12/23 09:53:37;;;;;;;5.20;1.03;;;;;;;4.69;100.00;101435.16;5042244;28;20457;-69
2023/12/23 09:56:04;;;;;;;6.40;0.90;;;;;;;4.83;100.00;101455.13;5045635;28;20458;-69
2023/12/23 09:58:29;;;;;;;3.77;0.90;;;;;;;4.82;100.00;101466.72;5047409;28;20441;-70
2023/12/23 10:00:55;;;;;;;5.30;0.83;;;;;;;4.88;100.00;101473.25;5038087;28;20504;-69
2023/12/23 10:03:23;;;;;;;4.10;0.90;;;;;;;4.44;100.00;101412.72;5045277;28;20748;-70
2023/12/23 10:05:51;;;;;;;3.63;0.90;;;;;;;4.87;100.00;101468.94;5041487;28;20607;-70
2023/12/23 10:08:17;;;;;;;3.30;0.80;;;;;;;4.82;100.00;101472.03;5046002;28;20461;-69
2023/12/23 10:10:45;;;;;;;3.83;0.73;;;;;;;4.80;100.00;101481.13;5051542;28;20445;-69
2023/12/23 10:13:11;;;;;;;3.47;0.80;;;;;;;4.88;100.00;101494.53;5042765;28;20212;-70
2023/12/23 10:15:39;;;;;;;3.30;0.97;;;;;;;4.88;100.00;101498.03;5045230;28;20915;-70
2023/12/23 10:18:06;;;;;;;3.80;0.90;;;;;;;4.60;100.00;101467.06;5043037;28;20203;-70
2023/12/23 10:20:32;;;;;;;3.30;0.90;;;;;;;4.92;100.00;101539.31;5044319;28;20442;-70
2023/12/23 10:22:58;;;;;;;5.43;0.90;;;;;;;4.83;100.00;101518.03;5043611;28;20433;-70
2023/12/23 10:25:23;;;;;;;3.30;0.80;;;;;;;4.63;100.00;101499.53;5049230;28;20468;-70
2023/12/23 10:27:54;;;;;;;3.17;0.80;;;;;;;4.76;100.00;101494.72;5047357;28;20477;-70
2023/12/23 10:30:23;;;;;;;4.27;1.10;;;;;;;4.69;100.00;101516.72;5041462;28;20188;-70
2023/12/23 10:32:50;;;;;;;3.70;1.00;;;;;;;4.87;100.00;101528.25;5044676;28;20532;-70
2023/12/23 10:35:19;;;;;;;5.37;1.00;;;;;;;4.79;100.00;101544.09;5052715;28;20433;-70
2023/12/23 10:37:46;;;;;;;4.30;1.13;;;;;;;4.89;100.00;101549.38;5033265;28;20470;-70
2023/12/23 10:40:19;;;;;;;4.07;0.83;;;;;;;4.70;100.00;101542.28;5043197;28;20470;-70
2023/12/23 10:42:47;;;;;;;3.00;0.80;;;;;;;4.86;100.00;101554.97;5047677;28;20512;-70
2023/12/23 10:45:12;;;;;;;4.13;1.07;;;;;;;4.94;100.00;101555.09;5040192;28;20437;-70
2023/12/23 10:47:39;;;;;;;3.40;0.90;;;;;;;4.99;100.00;101561.66;5045900;28;20559;-70
2023/12/23 10:50:07;;;;;;;3.30;0.70;;;;;;;4.51;100.00;101495.31;5049632;28;20207;-70
2023/12/23 10:52:33;;;;;;;6.63;0.90;;;;;;;4.84;100.00;101552.47;5046590;28;20806;-70
2023/12/23 10:55:03;;;;;;;3.30;0.70;;;;;;;4.90;100.00;101530.63;5045550;28;20495;-70
2023/12/23 10:57:31;;;;;;;3.90;0.70;;;;;;;5.05;100.00;101565.56;5051290;28;20446;-70
2023/12/23 10:59:57;;;;;;;3.20;0.70;;;;;;;5.06;100.00;101569.88;5049749;28;20526;-69
2023/12/23 11:02:27;;;;;;;3.93;0.70;;;;;;;4.82;100.00;101564.22;5050725;28;20434;-70
2023/12/23 11:04:54;;;;;;;3.43;0.70;;;;;;;5.01;100.00;101576.66;5046941;28;20427;-69
2023/12/23 11:07:36;;;;;;;3.40;0.87;;;;;;;5.02;100.00;101597.75;5044523;28;20982;-70
2023/12/23 11:10:03;;;;;;;3.23;0.67;;;;;;;4.85;100.00;101569.25;5046559;28;20473;-69
2023/12/23 11:12:29;;;;;;;3.97;0.80;;;;;;;5.03;100.00;101594.09;5045403;28;20920;-70
2023/12/23 11:14:55;;;;;;;5.83;0.87;;;;;;;5.00;100.00;101594.38;5044350;28;20484;-70